Time;durP1;ratioP1;P1;durP2;ratioP2;P2;SDS_P1;SDS_P2;PMS_P1;PMS_P2;Temp;Humidity;BMP_temperature;BMP_pressure;BME280_temperature;BME280_humidity;BME280_pressure;Samples;Min_cycle;Max_cycle;Signal;HPM_P1;HPM_P2
2024/03/03 00:01:03;;;;;;;27.17;18.52;;;;;;;9.89;65.87;98630.69;2512259;28;20046;-82
2024/03/03 00:02:18;;;;;;;26.85;19.58;;;;;;;9.85;66.08;98648.19;2503724;28;20484;-80
2024/03/03 00:03:31;;;;;;;26.88;20.33;;;;;;;9.80;66.06;98663.97;2503635;28;20058;-80
2024/03/03 00:04:46;;;;;;;24.92;18.55;;;;;;;9.76;66.24;98670.22;2503780;28;20047;-81
2024/03/03 00:05:59;;;;;;;23.25;18.48;;;;;;;9.72;66.28;98665.19;2504678;28;20050;-81
2024/03/03 00:07:15;;;;;;;28.58;20.13;;;;;;;9.67;66.55;98651.47;2505204;28;20142;-79
2024/03/03 00:08:28;;;;;;;22.67;18.08;;;;;;;9.63;66.56;98635.13;2505372;28;20043;-81
2024/03/03 00:09:45;;;;;;;23.77;17.75;;;;;;;9.61;66.59;98622.16;2505159;28;20094;-81
2024/03/03 00:10:58;;;;;;;21.45;18.70;;;;;;;9.59;66.78;98629.16;2505641;28;20083;-82
2024/03/03 00:12:13;;;;;;;25.98;21.20;;;;;;;9.57;66.66;98630.97;2505503;28;20269;-82
2024/03/03 00:13:28;;;;;;;27.65;20.25;;;;;;;9.57;66.88;98633.56;2505105;28;20047;-81
2024/03/03 00:14:45;;;;;;;29.45;21.17;;;;;;;9.56;67.13;98629.28;2505176;28;20050;-81
2024/03/03 00:15:58;;;;;;;24.50;18.45;;;;;;;9.54;67.10;98625.88;2505136;28;20055;-80
2024/03/03 00:17:13;;;;;;;25.50;18.95;;;;;;;9.53;66.91;98633.75;2505268;28;20150;-80
2024/03/03 00:18:27;;;;;;;25.98;20.17;;;;;;;9.53;66.93;98631.16;2504908;28;20047;-81
2024/03/03 00:19:41;;;;;;;25.50;19.30;;;;;;;9.49;67.23;98630.41;2504880;28;20078;-79
2024/03/03 00:20:55;;;;;;;25.27;20.35;;;;;;;9.46;67.05;98627.91;2506282;28;20055;-78
2024/03/03 00:22:09;;;;;;;26.95;20.00;;;;;;;9.43;67.16;98628.03;2505131;28;20051;-80
2024/03/03 00:23:24;;;;;;;24.42;20.27;;;;;;;9.41;67.13;98631.59;2503932;28;20054;-80
2024/03/03 00:24:38;;;;;;;29.52;19.23;;;;;;;9.37;67.46;98623.91;2503503;28;20043;-81
2024/03/03 00:25:52;;;;;;;27.65;19.70;;;;;;;9.35;67.50;98627.47;2503221;28;20051;-79
2024/03/03 00:27:06;;;;;;;27.80;20.75;;;;;;;9.31;67.50;98621.50;2503433;28;20051;-81
2024/03/03 00:28:20;;;;;;;25.90;20.63;;;;;;;9.26;67.69;98625.19;2504551;28;20047;-80
2024/03/03 00:29:34;;;;;;;25.88;20.55;;;;;;;9.24;67.75;98625.25;2503339;28;20201;-80
2024/03/03 00:30:48;;;;;;;25.90;20.58;;;;;;;9.20;68.01;98628.84;2504089;28;20046;-80
2024/03/03 00:32:03;;;;;;;27.27;18.83;;;;;;;9.15;67.78;98621.22;2504013;28;20426;-80
2024/03/03 00:33:17;;;;;;;26.67;19.33;;;;;;;9.09;67.99;98631.84;2503507;28;20126;-80
2024/03/03 00:34:32;;;;;;;25.23;19.20;;;;;;;9.06;68.10;98626.75;2504187;28;20133;-79
2024/03/03 00:35:45;;;;;;;23.77;17.77;;;;;;;9.03;68.22;98626.00;2503765;28;20058;-79
2024/03/03 00:37:00;;;;;;;26.67;19.13;;;;;;;9.00;68.33;98621.75;2503871;28;20134;-79
2024/03/03 00:38:13;;;;;;;26.90;19.92;;;;;;;8.99;68.43;98627.88;2503832;28;20054;-80
2024/03/03 00:39:29;;;;;;;27.13;19.50;;;;;;;9.00;68.74;98624.34;2503978;28;20039;-79
2024/03/03 00:40:43;;;;;;;26.33;20.30;;;;;;;9.00;68.75;98628.72;2503497;28;20065;-80
2024/03/03 00:41:58;;;;;;;26.35;19.02;;;;;;;8.98;68.65;98626.16;2503616;28;20062;-80
2024/03/03 00:43:11;;;;;;;26.70;20.75;;;;;;;8.98;68.91;98631.34;2504473;28;20043;-79
2024/03/03 00:44:26;;;;;;;25.70;18.73;;;;;;;8.98;68.87;98633.94;2504227;28;20481;-80
2024/03/03 00:45:39;;;;;;;25.00;19.13;;;;;;;8.99;68.95;98634.81;2503358;28;20451;-81
2024/03/03 00:46:53;;;;;;;29.50;21.73;;;;;;;9.00;68.90;98633.91;2504376;28;20126;-80
2024/03/03 00:48:07;;;;;;;27.80;20.25;;;;;;;9.00;68.96;98619.16;2503733;28;20527;-80
2024/03/03 00:49:22;;;;;;;25.85;19.67;;;;;;;9.00;68.85;98618.31;2503381;28;20049;-81
2024/03/03 00:50:35;;;;;;;25.05;19.17;;;;;;;8.99;68.89;98620.06;2504437;28;20129;-79
2024/03/03 00:51:49;;;;;;;25.23;20.08;;;;;;;8.99;68.96;98616.63;2504353;28;20055;-80
2024/03/03 00:53:03;;;;;;;30.45;21.15;;;;;;;8.98;68.91;98620.94;2503840;28;20043;-80
2024/03/03 00:54:18;;;;;;;26.00;20.70;;;;;;;8.98;69.12;98617.50;2503722;28;20047;-80
2024/03/03 00:55:33;;;;;;;27.90;18.80;;;;;;;8.99;68.88;98614.00;2503215;28;20057;-80
2024/03/03 00:56:49;;;;;;;23.67;19.55;;;;;;;9.00;69.08;98610.50;2504039;28;20058;-81
2024/03/03 00:58:04;;;;;;;22.90;19.48;;;;;;;8.99;69.02;98612.25;2503256;28;20062;-81
2024/03/03 00:59:18;;;;;;;29.45;20.92;;;;;;;8.98;69.13;98613.13;2504192;28;20134;-81
2024/03/03 01:00:32;;;;;;;31.50;21.10;;;;;;;8.97;69.04;98618.41;2503924;28;20046;-80
2024/03/03 01:01:46;;;;;;;26.95;20.45;;;;;;;8.95;68.94;98611.50;2503411;28;20054;-80
2024/03/03 01:03:00;;;;;;;27.33;20.00;;;;;;;8.92;69.24;98611.59;2504034;28;20058;-81
2024/03/03 01:04:14;;;;;;;30.27;20.17;;;;;;;8.90;69.22;98609.97;2504351;28;20090;-80
2024/03/03 01:05:28;;;;;;;31.02;20.83;;;;;;;8.89;69.15;98606.50;2503432;28;20078;-81
2024/03/03 01:06:42;;;;;;;26.77;20.27;;;;;;;8.88;69.35;98599.63;2503700;28;20488;-81
2024/03/03 01:07:56;;;;;;;33.13;20.73;;;;;;;8.87;69.40;98599.66;2503706;28;20066;-81
2024/03/03 01:09:10;;;;;;;22.95;18.35;;;;;;;8.86;69.48;98601.41;2496826;28;20130;-83
2024/03/03 01:10:24;;;;;;;24.92;19.60;;;;;;;8.83;69.50;98604.13;2507477;28;20043;-81
2024/03/03 01:11:40;;;;;;;25.80;18.10;;;;;;;8.78;69.46;98595.63;2513324;28;20102;-81
2024/03/03 01:12:54;;;;;;;25.52;20.15;;;;;;;8.71;69.48;98600.19;2503195;28;20520;-81
2024/03/03 01:14:09;;;;;;;33.97;22.23;;;;;;;8.67;69.73;98600.34;2502367;28;20047;-82
2024/03/03 01:15:22;;;;;;;27.17;18.75;;;;;;;8.64;69.56;98603.03;2503143;28;20073;-80
2024/03/03 01:16:37;;;;;;;29.77;22.38;;;;;;;8.61;69.78;98595.34;2503357;28;20105;-81
2024/03/03 01:17:50;;;;;;;32.50;22.58;;;;;;;8.59;69.85;98590.19;2503431;28;20051;-82
2024/03/03 01:19:05;;;;;;;30.70;21.17;;;;;;;8.57;70.00;98594.63;2503623;28;20061;-82
2024/03/03 01:20:18;;;;;;;26.30;20.02;;;;;;;8.56;69.98;98595.50;2503986;28;20061;-82
2024/03/03 01:21:33;;;;;;;25.98;19.25;;;;;;;8.53;69.97;98593.00;2503353;28;20138;-82
2024/03/03 01:22:46;;;;;;;27.92;22.25;;;;;;;8.51;70.11;98589.59;2503954;28;20070;-82
2024/03/03 01:24:01;;;;;;;27.40;20.50;;;;;;;8.49;70.15;98588.78;2503699;28;20058;-80
2024/03/03 01:25:14;;;;;;;27.23;19.25;;;;;;;8.45;70.29;98587.22;2503539;28;20066;-82
2024/03/03 01:26:29;;;;;;;29.88;22.00;;;;;;;8.43;70.16;98589.00;2503294;28;20051;-82
2024/03/03 01:27:43;;;;;;;30.75;20.67;;;;;;;8.38;70.35;98588.28;2504008;28;20541;-83
2024/03/03 01:28:58;;;;;;;28.42;20.83;;;;;;;8.35;70.50;98585.78;2503897;28;20134;-83
2024/03/03 01:30:11;;;;;;;36.03;22.95;;;;;;;8.33;70.73;98595.38;2504608;28;20053;-81
2024/03/03 01:31:26;;;;;;;24.65;20.10;;;;;;;8.31;70.92;98587.63;2508956;28;20556;-83
2024/03/03 01:32:39;;;;;;;32.33;23.08;;;;;;;8.33;70.94;98595.38;2505338;28;20046;-82
2024/03/03 01:33:54;;;;;;;28.77;22.88;;;;;;;8.28;71.02;98588.56;2505012;28;20560;-83
2024/03/03 01:35:08;;;;;;;29.30;21.90;;;;;;;8.26;70.86;98589.50;2505072;28;20047;-83
2024/03/03 01:36:22;;;;;;;26.08;20.50;;;;;;;8.22;70.91;98588.78;2505138;28;20074;-83
2024/03/03 01:37:36;;;;;;;26.98;20.73;;;;;;;8.19;70.77;98594.06;2504757;28;20058;-83
2024/03/03 01:38:50;;;;;;;26.70;21.00;;;;;;;8.15;70.86;98586.41;2504997;28;20086;-83
2024/03/03 01:40:04;;;;;;;30.55;23.58;;;;;;;8.11;71.10;98590.03;2504729;28;20083;-83
2024/03/03 01:41:19;;;;;;;38.38;25.20;;;;;;;8.12;71.52;98587.38;2504463;28;20051;-81
2024/03/03 01:42:32;;;;;;;30.77;21.90;;;;;;;8.15;71.26;98583.81;2504610;28;20051;-83
2024/03/03 01:43:48;;;;;;;35.60;21.20;;;;;;;8.14;71.42;98584.72;2504713;28;20452;-83
2024/03/03 01:45:02;;;;;;;29.33;21.70;;;;;;;8.11;71.17;98587.44;2504277;28;20149;-83
2024/03/03 01:46:17;;;;;;;29.15;20.23;;;;;;;8.08;71.37;98588.38;2504337;28;20444;-83
2024/03/03 01:47:30;;;;;;;33.47;23.23;;;;;;;8.07;71.39;98581.47;2505150;28;20058;-83
2024/03/03 01:48:45;;;;;;;31.73;22.52;;;;;;;8.05;71.17;98588.44;2504588;28;20057;-83
2024/03/03 01:49:59;;;;;;;27.58;20.27;;;;;;;8.04;71.64;98584.16;2503282;28;20047;-81
2024/03/03 01:51:13;;;;;;;33.67;22.15;;;;;;;8.03;71.49;98588.50;2496870;28;20062;-81
2024/03/03 01:52:28;;;;;;;31.50;24.02;;;;;;;8.02;71.54;98586.81;2503185;28;20051;-82
2024/03/03 01:53:44;;;;;;;29.92;21.70;;;;;;;7.99;71.57;98584.31;2505560;28;20047;-82
2024/03/03 01:54:58;;;;;;;30.75;20.27;;;;;;;7.97;71.65;98582.66;2505445;28;20161;-83
2024/03/03 01:56:13;;;;;;;28.13;21.00;;;;;;;7.97;71.63;98590.44;2505685;28;20082;-82
2024/03/03 01:57:27;;;;;;;36.38;23.38;;;;;;;7.94;71.82;98593.97;2504549;28;20054;-81
2024/03/03 01:58:42;;;;;;;31.85;22.88;;;;;;;7.93;71.91;98594.06;2505711;28;20057;-82
2024/03/03 01:59:58;;;;;;;30.75;22.77;;;;;;;7.91;72.16;98598.44;2505790;28;20051;-80
2024/03/03 02:01:13;;;;;;;32.30;23.42;;;;;;;7.90;71.87;98591.53;2505970;28;20150;-82
2024/03/03 02:02:27;;;;;;;38.17;25.00;;;;;;;7.88;72.22;98590.75;2504851;28;20059;-81
2024/03/03 02:03:42;;;;;;;33.88;24.92;;;;;;;7.85;72.37;98591.69;2505374;28;20089;-82
2024/03/03 02:04:56;;;;;;;32.38;23.95;;;;;;;7.82;71.89;98586.56;2506354;28;20051;-82
2024/03/03 02:06:11;;;;;;;28.17;21.25;;;;;;;7.77;72.36;98596.25;2505259;28;20050;-82
2024/03/03 02:07:25;;;;;;;29.02;21.50;;;;;;;7.73;72.21;98590.28;2506057;28;20070;-82
2024/03/03 02:08:40;;;;;;;32.55;24.23;;;;;;;7.70;72.45;98589.56;2505505;28;20054;-82
2024/03/03 02:09:54;;;;;;;32.30;23.58;;;;;;;7.68;72.34;98587.00;2504695;28;20051;-82
2024/03/03 02:11:08;;;;;;;29.40;23.00;;;;;;;7.65;72.58;98587.94;2505726;28;20461;-82
2024/03/03 02:12:25;;;;;;;31.88;23.73;;;;;;;7.61;72.55;98580.28;2505706;28;20043;-83
2024/03/03 02:13:39;;;;;;;32.55;21.58;;;;;;;7.58;72.62;98580.38;2505185;28;20480;-83
2024/03/03 02:14:53;;;;;;;35.67;26.23;;;;;;;7.53;72.64;98583.09;2505828;28;20685;-83
2024/03/03 02:16:08;;;;;;;31.77;23.08;;;;;;;7.49;72.68;98581.50;2505734;28;20051;-83
2024/03/03 02:17:22;;;;;;;36.45;24.10;;;;;;;7.46;72.62;98570.34;2505553;28;20457;-83
2024/03/03 02:18:37;;;;;;;33.20;22.50;;;;;;;7.41;72.66;98581.72;2505858;28;20051;-83
2024/03/03 02:19:51;;;;;;;30.55;22.75;;;;;;;7.38;72.99;98589.59;2508005;28;20050;-83
2024/03/03 02:21:06;;;;;;;37.42;26.38;;;;;;;7.33;72.98;98593.19;2515501;28;20045;-82
2024/03/03 02:22:21;;;;;;;36.25;24.75;;;;;;;7.29;72.90;98589.00;2505706;28;20465;-81
2024/03/03 02:23:35;;;;;;;38.88;25.30;;;;;;;7.27;73.21;98591.63;2504413;28;20054;-82
2024/03/03 02:24:49;;;;;;;31.25;23.90;;;;;;;7.25;73.20;98595.16;2504061;28;20043;-82
2024/03/03 02:26:03;;;;;;;36.13;25.35;;;;;;;7.22;73.55;98598.69;2503603;28;20069;-81
2024/03/03 02:27:17;;;;;;;35.88;24.90;;;;;;;7.21;73.46;98592.66;2504543;28;20061;-82
2024/03/03 02:28:32;;;;;;;34.20;22.83;;;;;;;7.18;73.42;98597.09;2504042;28;20053;-82
2024/03/03 02:29:45;;;;;;;37.00;25.02;;;;;;;7.16;73.64;98596.28;2503944;28;20069;-82
2024/03/03 02:31:00;;;;;;;33.50;24.42;;;;;;;7.12;73.80;98586.88;2505186;28;20055;-82
2024/03/03 02:32:13;;;;;;;36.40;24.83;;;;;;;7.10;73.90;98594.72;2504861;28;20051;-83
2024/03/03 02:33:27;;;;;;;36.65;26.10;;;;;;;7.07;73.67;98593.94;2505215;28;20157;-83
2024/03/03 02:34:41;;;;;;;30.40;23.30;;;;;;;7.04;73.86;98600.06;2505591;28;20046;-83
2024/03/03 02:35:55;;;;;;;38.95;25.92;;;;;;;7.02;74.07;98598.38;2505354;28;20115;-83
2024/03/03 02:37:09;;;;;;;32.67;24.30;;;;;;;6.99;74.03;98597.56;2505548;28;20058;-83
2024/03/03 02:38:25;;;;;;;34.65;27.98;;;;;;;6.98;74.23;98600.22;2504781;28;20038;-84
2024/03/03 02:39:38;;;;;;;33.35;25.52;;;;;;;6.96;74.34;98595.06;2505605;28;20053;-83
2024/03/03 02:40:52;;;;;;;34.58;24.38;;;;;;;6.97;74.27;98595.94;2505544;28;20415;-82
2024/03/03 02:42:06;;;;;;;39.88;27.05;;;;;;;6.96;74.48;98589.03;2504858;28;20053;-83
2024/03/03 02:43:21;;;;;;;38.38;27.35;;;;;;;6.95;74.52;98589.94;2505694;28;20452;-82
2024/03/03 02:44:35;;;;;;;33.55;24.92;;;;;;;6.96;74.81;98592.47;2505432;28;20046;-82
2024/03/03 02:45:49;;;;;;;39.30;28.38;;;;;;;6.96;74.62;98600.25;2505253;28;20059;-83
2024/03/03 02:47:03;;;;;;;39.83;28.08;;;;;;;6.95;74.71;98598.56;2505371;28;20050;-82
2024/03/03 02:48:18;;;;;;;40.70;26.92;;;;;;;6.95;74.85;98605.50;2505565;28;20061;-83
2024/03/03 02:49:32;;;;;;;42.35;26.40;;;;;;;6.96;74.96;98607.19;2504964;28;20050;-82
2024/03/03 02:50:46;;;;;;;45.72;27.10;;;;;;;6.95;74.97;98606.34;2505565;28;20505;-83
2024/03/03 02:52:00;;;;;;;42.78;27.15;;;;;;;6.95;75.15;98606.34;2505406;28;20047;-81
2024/03/03 02:53:14;;;;;;;40.80;26.65;;;;;;;6.96;75.07;98608.03;2505404;28;20135;-82
2024/03/03 02:54:29;;;;;;;38.13;26.67;;;;;;;6.97;75.38;98604.56;2505034;28;20146;-81
2024/03/03 02:55:44;;;;;;;39.50;27.75;;;;;;;6.97;75.41;98599.38;2505463;28;20047;-83
2024/03/03 02:56:57;;;;;;;38.42;26.80;;;;;;;6.97;75.40;98583.81;2505581;28;20061;-83
2024/03/03 02:58:12;;;;;;;39.03;26.85;;;;;;;6.98;75.55;98577.72;2505507;28;20110;-83
2024/03/03 02:59:25;;;;;;;36.17;26.20;;;;;;;6.99;75.72;98579.41;2505783;28;20043;-83
2024/03/03 03:00:40;;;;;;;42.28;27.48;;;;;;;7.01;75.50;98581.16;2506419;28;20078;-83
2024/03/03 03:01:53;;;;;;;35.55;26.73;;;;;;;7.03;75.54;98582.81;2505223;28;20046;-83
2024/03/03 03:03:08;;;;;;;38.22;26.30;;;;;;;7.04;75.61;98594.03;2505344;28;20439;-82
2024/03/03 03:04:21;;;;;;;37.65;25.98;;;;;;;7.06;75.50;98592.25;2505353;28;20050;-84
2024/03/03 03:05:36;;;;;;;40.45;25.92;;;;;;;7.06;75.63;98598.28;2504893;28;20508;-81
2024/03/03 03:06:49;;;;;;;39.08;26.67;;;;;;;7.07;75.49;98602.56;2505166;28;20127;-82
2024/03/03 03:08:04;;;;;;;35.65;24.52;;;;;;;7.09;75.53;98602.53;2505844;28;20083;-82
2024/03/03 03:09:17;;;;;;;35.47;25.95;;;;;;;7.09;75.85;98598.19;2498991;28;20043;-83
2024/03/03 03:10:33;;;;;;;35.90;24.02;;;;;;;7.11;75.77;98601.59;2505653;28;20555;-82
2024/03/03 03:11:47;;;;;;;36.42;25.42;;;;;;;7.13;75.86;98607.59;2505778;28;20070;-82
2024/03/03 03:13:01;;;;;;;43.65;26.50;;;;;;;7.16;75.93;98612.69;2505364;28;20129;-82
2024/03/03 03:14:14;;;;;;;37.60;25.75;;;;;;;7.17;75.81;98608.34;2504742;28;20684;-83
2024/03/03 03:15:32;;;;;;;40.92;26.17;;;;;;;7.18;75.82;98610.91;2505114;28;20047;-83
2024/03/03 03:16:45;;;;;;;36.90;27.10;;;;;;;7.18;75.54;98608.31;2505843;28;20062;-84
2024/03/03 03:17:59;;;;;;;40.45;25.70;;;;;;;7.20;75.79;98609.13;2504845;28;20046;-83
2024/03/03 03:19:13;;;;;;;37.40;25.98;;;;;;;7.20;75.89;98595.28;2505700;28;20047;-83
2024/03/03 03:20:27;;;;;;;39.58;26.75;;;;;;;7.22;75.86;98596.09;2505957;28;20400;-83
2024/03/03 03:21:41;;;;;;;40.47;26.13;;;;;;;7.24;75.80;98596.06;2505558;28;20043;-81
2024/03/03 03:22:55;;;;;;;41.63;27.10;;;;;;;7.24;76.01;98602.09;2505317;28;20090;-83
2024/03/03 03:24:09;;;;;;;44.40;27.15;;;;;;;7.25;75.84;98603.78;2505742;28;20055;-83
2024/03/03 03:25:23;;;;;;;39.50;24.90;;;;;;;7.26;75.69;98599.47;2504805;28;20086;-83
2024/03/03 03:26:38;;;;;;;32.55;22.98;;;;;;;7.27;76.01;98590.78;2508241;28;20062;-79
2024/03/03 03:27:52;;;;;;;35.22;23.55;;;;;;;7.27;75.90;98594.22;2513350;28;20508;-80
2024/03/03 03:29:06;;;;;;;37.55;23.98;;;;;;;7.29;75.74;98601.97;2508105;28;20114;-83
2024/03/03 03:30:20;;;;;;;36.65;25.40;;;;;;;7.30;75.77;98603.66;2513867;28;20031;-81
2024/03/03 03:31:34;;;;;;;37.75;25.40;;;;;;;7.30;75.76;98599.31;2505466;28;20047;-83
2024/03/03 03:32:48;;;;;;;39.65;24.80;;;;;;;7.31;75.72;98603.66;2506071;28;20527;-81
2024/03/03 03:34:01;;;;;;;36.15;23.30;;;;;;;7.32;75.76;98610.53;2504082;28;20043;-82
2024/03/03 03:35:16;;;;;;;35.05;23.63;;;;;;;7.32;75.67;98607.94;2503819;28;20752;-81
2024/03/03 03:36:29;;;;;;;38.38;25.58;;;;;;;7.33;75.63;98604.47;2504441;28;20054;-80
2024/03/03 03:37:44;;;;;;;37.45;23.85;;;;;;;7.33;75.65;98596.66;2503989;28;20472;-81
2024/03/03 03:38:59;;;;;;;34.50;24.35;;;;;;;7.33;75.39;98596.66;2503636;28;20377;-81
2024/03/03 03:40:14;;;;;;;37.35;25.33;;;;;;;7.34;75.33;98600.94;2505399;28;20055;-81
2024/03/03 03:41:28;;;;;;;37.50;24.85;;;;;;;7.34;75.50;98598.34;2513567;28;20043;-79
2024/03/03 03:42:43;;;;;;;39.63;25.10;;;;;;;7.35;75.56;98592.25;2509764;28;20109;-82
2024/03/03 03:43:57;;;;;;;32.85;24.15;;;;;;;7.34;75.57;98582.78;2504511;28;20050;-81
2024/03/03 03:45:13;;;;;;;34.03;23.17;;;;;;;7.35;75.73;98576.69;2503664;28;20057;-83
2024/03/03 03:46:27;;;;;;;37.15;26.48;;;;;;;7.35;75.64;98576.69;2503286;28;20050;-82
2024/03/03 03:47:41;;;;;;;38.42;26.30;;;;;;;7.35;75.41;98576.69;2503813;28;20055;-82
2024/03/03 03:48:55;;;;;;;37.10;25.65;;;;;;;7.35;75.64;98575.84;2503999;28;20066;-82
2024/03/03 03:50:10;;;;;;;38.92;26.17;;;;;;;7.35;75.52;98581.88;2503389;28;20471;-83
2024/03/03 03:51:25;;;;;;;34.35;24.50;;;;;;;7.34;75.30;98582.78;2503849;28;20051;-82
2024/03/03 03:52:39;;;;;;;36.60;24.10;;;;;;;7.34;75.37;98587.97;2503563;28;20050;-82
2024/03/03 03:53:53;;;;;;;35.92;22.65;;;;;;;7.33;75.50;98578.50;2503320;28;20046;-82
2024/03/03 03:55:09;;;;;;;35.13;25.08;;;;;;;7.33;75.58;98586.28;2503544;28;20051;-82
2024/03/03 03:56:22;;;;;;;37.67;24.50;;;;;;;7.32;75.40;98584.56;2504044;28;20571;-83
2024/03/03 03:57:37;;;;;;;38.35;26.20;;;;;;;7.33;75.30;98595.78;2503152;28;20134;-83
2024/03/03 03:58:51;;;;;;;39.30;24.60;;;;;;;7.32;75.32;98601.88;2503571;28;20050;-82
2024/03/03 04:00:09;;;;;;;37.72;28.70;;;;;;;7.31;75.30;98614.03;2503554;28;20058;-83
2024/03/03 04:01:23;;;;;;;39.47;25.38;;;;;;;7.30;75.30;98621.84;2503367;28;20101;-83
2024/03/03 04:02:37;;;;;;;38.40;24.98;;;;;;;7.30;75.25;98609.72;2503593;28;20097;-82
2024/03/03 04:03:51;;;;;;;35.83;25.52;;;;;;;7.28;75.33;98611.50;2503968;28;20061;-82
2024/03/03 04:05:06;;;;;;;39.95;24.92;;;;;;;7.28;75.52;98608.94;2504723;28;20118;-83
2024/03/03 04:06:20;;;;;;;33.10;23.35;;;;;;;7.28;75.38;98608.94;2495298;28;20130;-82
2024/03/03 04:07:37;;;;;;;39.80;25.85;;;;;;;7.26;75.47;98600.31;2503859;28;20046;-83
2024/03/03 04:08:50;;;;;;;38.33;27.95;;;;;;;7.27;75.44;98615.00;2503535;28;20046;-82
2024/03/03 04:10:09;;;;;;;36.50;22.95;;;;;;;7.25;75.48;98608.13;2503227;28;20226;-83
2024/03/03 04:11:22;;;;;;;40.90;27.40;;;;;;;7.24;75.53;98604.69;2496202;28;20075;-83
2024/03/03 04:12:37;;;;;;;43.42;27.17;;;;;;;7.24;75.50;98607.28;2503562;28;20051;-83
2024/03/03 04:13:51;;;;;;;37.10;25.60;;;;;;;7.22;75.45;98609.91;2503295;28;20047;-82
2024/03/03 04:15:07;;;;;;;34.60;24.20;;;;;;;7.21;75.40;98612.56;2503253;28;20428;-83
2024/03/03 04:16:20;;;;;;;37.50;25.30;;;;;;;7.19;75.40;98602.22;2495375;28;20051;-82
2024/03/03 04:17:35;;;;;;;37.10;26.52;;;;;;;7.18;75.30;98602.28;2503101;28;20511;-82
2024/03/03 04:18:48;;;;;;;33.50;25.63;;;;;;;7.17;75.59;98610.94;2503504;28;20054;-81
2024/03/03 04:20:05;;;;;;;40.13;24.40;;;;;;;7.16;75.42;98606.66;2503811;28;20488;-82
2024/03/03 04:21:18;;;;;;;37.42;23.80;;;;;;;7.15;75.53;98607.53;2503534;28;20054;-82
2024/03/03 04:22:33;;;;;;;40.08;26.20;;;;;;;7.11;75.65;98611.13;2503724;28;20047;-81
2024/03/03 04:23:46;;;;;;;39.55;24.02;;;;;;;7.11;75.87;98603.34;2503867;28;20427;-82
2024/03/03 04:25:01;;;;;;;31.63;23.70;;;;;;;7.10;75.65;98604.22;2503537;28;20133;-81
2024/03/03 04:26:14;;;;;;;30.48;22.95;;;;;;;7.08;75.65;98596.50;2503048;28;20050;-81
2024/03/03 04:27:29;;;;;;;36.33;27.75;;;;;;;7.08;75.80;98600.84;2503748;28;20227;-82
2024/03/03 04:28:42;;;;;;;45.28;24.80;;;;;;;7.07;75.68;98599.13;2503635;28;20042;-83
2024/03/03 04:29:58;;;;;;;38.28;26.00;;;;;;;7.05;75.71;98601.78;2503376;28;20053;-82
2024/03/03 04:31:11;;;;;;;43.22;26.63;;;;;;;7.04;75.88;98601.81;2504194;28;20055;-81
2024/03/03 04:32:26;;;;;;;38.13;25.25;;;;;;;7.01;75.70;98594.94;2503467;28;20094;-82
2024/03/03 04:33:39;;;;;;;37.30;26.55;;;;;;;6.99;75.69;98592.38;2502873;28;20043;-83
2024/03/03 04:34:54;;;;;;;37.25;24.77;;;;;;;6.98;75.75;98603.66;2503013;28;20115;-83
2024/03/03 04:36:09;;;;;;;37.53;25.20;;;;;;;6.96;75.82;98599.41;2503490;28;20058;-83
2024/03/03 04:37:23;;;;;;;40.13;25.40;;;;;;;6.95;75.85;98608.09;2495399;28;20051;-81
2024/03/03 04:38:39;;;;;;;36.97;25.38;;;;;;;6.94;75.78;98601.19;2510903;28;20041;-80
2024/03/03 04:39:54;;;;;;;36.25;24.17;;;;;;;6.92;75.70;98598.66;2510142;28;20046;-82
2024/03/03 04:41:13;;;;;;;41.92;25.35;;;;;;;6.92;75.87;98603.84;2503384;28;20388;-81
2024/03/03 04:42:27;;;;;;;43.70;27.60;;;;;;;6.91;75.92;98603.88;2495198;28;20632;-82
2024/03/03 04:43:41;;;;;;;42.00;27.77;;;;;;;6.90;75.96;98610.81;2503009;28;20058;-81
2024/03/03 04:44:55;;;;;;;35.88;26.05;;;;;;;6.89;75.97;98613.44;2503126;28;20042;-81
2024/03/03 04:46:10;;;;;;;35.00;24.58;;;;;;;6.88;76.25;98620.34;2502521;28;20046;-81
2024/03/03 04:47:24;;;;;;;38.67;24.05;;;;;;;6.87;76.18;98626.44;2503667;28;20082;-83
2024/03/03 04:48:39;;;;;;;37.55;26.95;;;;;;;6.87;76.13;98623.84;2503496;28;20047;-82
2024/03/03 04:49:53;;;;;;;41.47;28.92;;;;;;;6.86;76.05;98621.28;2502716;28;20053;-81
2024/03/03 04:51:07;;;;;;;40.88;27.08;;;;;;;6.84;76.16;98610.97;2503372;28;20054;-81
2024/03/03 04:52:21;;;;;;;40.67;25.35;;;;;;;6.85;76.11;98614.41;2503593;28;20134;-82
2024/03/03 04:53:35;;;;;;;41.80;25.38;;;;;;;6.83;76.18;98617.03;2502633;28;20496;-81
2024/03/03 04:54:49;;;;;;;39.47;26.50;;;;;;;6.82;76.10;98619.69;2502615;28;20047;-82
2024/03/03 04:56:03;;;;;;;36.65;26.48;;;;;;;6.82;76.26;98614.50;2503173;28;20050;-81
2024/03/03 04:57:18;;;;;;;41.45;25.40;;;;;;;6.81;76.07;98616.22;2502662;28;20479;-81
2024/03/03 04:58:31;;;;;;;42.85;25.40;;;;;;;6.80;76.11;98614.53;2509870;28;20043;-80
2024/03/03 04:59:46;;;;;;;34.15;24.77;;;;;;;6.79;75.88;98599.88;2507073;28;20074;-83
2024/03/03 05:00:59;;;;;;;39.05;26.55;;;;;;;6.77;76.03;98605.09;2506137;28;20428;-83
2024/03/03 05:02:15;;;;;;;40.50;26.30;;;;;;;6.77;76.20;98615.47;2505390;28;20129;-82
2024/03/03 05:03:29;;;;;;;37.72;25.70;;;;;;;6.75;75.98;98603.44;2505433;28;20082;-81
2024/03/03 05:04:43;;;;;;;40.03;24.88;;;;;;;6.75;76.06;98608.59;2504944;28;20053;-83
2024/03/03 05:05:57;;;;;;;54.08;25.77;;;;;;;6.74;76.01;98610.34;2504582;28;20047;-82
2024/03/03 05:07:11;;;;;;;40.10;25.08;;;;;;;6.74;75.94;98606.91;2505468;28;20050;-82
2024/03/03 05:08:25;;;;;;;40.30;28.00;;;;;;;6.72;76.00;98601.75;2505473;28;20105;-81
2024/03/03 05:09:39;;;;;;;41.45;25.92;;;;;;;6.72;76.11;98601.75;2504416;28;20050;-83
2024/03/03 05:10:53;;;;;;;42.47;26.10;;;;;;;6.71;76.25;98607.84;2504988;28;20051;-81
2024/03/03 05:12:07;;;;;;;37.95;24.95;;;;;;;6.71;76.23;98605.25;2504924;28;20059;-83
2024/03/03 05:13:21;;;;;;;37.20;24.55;;;;;;;6.70;76.11;98605.28;2502124;28;20124;-83
2024/03/03 05:14:35;;;;;;;37.38;26.08;;;;;;;6.70;76.30;98605.28;2504102;28;20039;-81
2024/03/03 05:15:49;;;;;;;34.65;24.52;;;;;;;6.69;76.33;98604.44;2504266;28;20046;-81
2024/03/03 05:17:04;;;;;;;36.28;24.63;;;;;;;6.71;76.00;98604.38;2504420;28;20126;-82
2024/03/03 05:18:18;;;;;;;38.22;25.77;;;;;;;6.69;76.12;98596.66;2502930;28;20061;-82
2024/03/03 05:19:33;;;;;;;38.03;26.00;;;;;;;6.69;76.21;98591.47;2503872;28;20043;-83
2024/03/03 05:20:46;;;;;;;40.75;27.27;;;;;;;6.69;76.32;98601.84;2504322;28;20057;-83
2024/03/03 05:22:01;;;;;;;41.00;27.45;;;;;;;6.69;76.09;98596.66;2503378;28;20483;-82
2024/03/03 05:23:14;;;;;;;37.72;25.50;;;;;;;6.68;76.27;98591.50;2503448;28;20465;-81
2024/03/03 05:24:29;;;;;;;41.72;25.83;;;;;;;6.67;76.18;98598.44;2503426;28;20129;-83
2024/03/03 05:25:43;;;;;;;39.35;25.90;;;;;;;6.68;76.40;98601.88;2502200;28;20043;-81
2024/03/03 05:26:58;;;;;;;43.47;26.27;;;;;;;6.68;76.08;98602.72;2503905;28;20445;-82
2024/03/03 05:28:11;;;;;;;42.88;25.48;;;;;;;6.67;76.43;98603.63;2505098;28;20051;-79
2024/03/03 05:29:26;;;;;;;39.47;25.70;;;;;;;6.68;76.37;98601.88;2505358;28;20098;-82
2024/03/03 05:30:40;;;;;;;41.25;27.23;;;;;;;6.69;76.33;98608.78;2505645;28;20047;-82
2024/03/03 05:31:55;;;;;;;41.58;26.67;;;;;;;6.67;76.29;98603.63;2504844;28;20133;-81
2024/03/03 05:33:08;;;;;;;41.80;27.05;;;;;;;6.68;76.22;98618.28;2504530;28;20046;-81
2024/03/03 05:34:24;;;;;;;36.72;24.42;;;;;;;6.68;76.20;98614.84;2504382;28;20053;-82
2024/03/03 05:35:38;;;;;;;35.70;25.27;;;;;;;6.67;76.12;98608.81;2504915;28;20047;-81
2024/03/03 05:36:52;;;;;;;36.45;27.45;;;;;;;6.68;76.14;98615.69;2504851;28;20522;-81
2024/03/03 05:38:06;;;;;;;40.15;25.60;;;;;;;6.68;76.17;98607.06;2504587;28;20046;-82
2024/03/03 05:39:21;;;;;;;38.88;29.00;;;;;;;6.68;76.14;98613.09;2504667;28;20239;-82
2024/03/03 05:40:35;;;;;;;40.72;26.83;;;;;;;6.67;76.18;98611.41;2505030;28;20500;-81
2024/03/03 05:41:50;;;;;;;37.50;25.45;;;;;;;6.67;76.29;98608.81;2504473;28;20074;-81
2024/03/03 05:43:04;;;;;;;37.38;25.20;;;;;;;6.67;76.22;98615.75;2504803;28;20073;-82
2024/03/03 05:44:18;;;;;;;40.20;26.63;;;;;;;6.67;76.31;98610.56;2504864;28;20051;-81
2024/03/03 05:45:31;;;;;;;37.72;27.65;;;;;;;6.65;76.16;98608.00;2504001;28;20055;-81